Time;durP1;ratioP1;P1;durP2;ratioP2;P2;SDS_P1;SDS_P2;PMS_P1;PMS_P2;Temp;Humidity;BMP_temperature;BMP_pressure;BME280_temperature;BME280_humidity;BME280_pressure;Samples;Min_cycle;Max_cycle;Signal;HPM_P1;HPM_P2
2023/06/30 00:01:12;;;;;;;;;;;;;;;28.89;40.58;101105.75;5061062;28;19981;-84
2023/06/30 00:03:38;;;;;;;;;;;;;;;28.85;40.78;101110.34;5061454;28;20487;-84
2023/06/30 00:06:03;;;;;;;;;;;;;;;28.82;40.65;101100.84;5062828;28;19948;-84
2023/06/30 00:08:28;;;;;;;;;;;;;;;28.79;40.64;101098.03;5062183;28;19921;-84
2023/06/30 00:10:54;;;;;;;;;;;;;;;28.76;41.26;101102.31;5062383;28;19963;-84
2023/06/30 00:13:19;;;;;;;;;;;;;;;28.73;41.21;101097.53;5061939;28;20421;-84
2023/06/30 00:15:45;;;;;;;;;;;;;;;28.72;41.08;101101.44;5064083;28;20396;-84
2023/06/30 00:18:10;;;;;;;;;;;;;;;28.71;41.10;101096.28;5060962;28;19967;-84
2023/06/30 00:20:35;;;;;;;;;;;;;;;28.72;41.02;101095.13;5063589;28;19923;-84
2023/06/30 00:23:00;;;;;;;;;;;;;;;28.69;40.96;101101.34;5059678;28;20386;-84
2023/06/30 00:25:26;;;;;;;;;;;;;;;28.65;40.99;101094.97;5063992;28;19931;-84
2023/06/30 00:27:51;;;;;;;;;;;;;;;28.62;40.80;101095.72;5061795;28;20349;-84
2023/06/30 00:30:16;;;;;;;;;;;;;;;28.59;40.86;101088.97;5062615;28;19920;-84
2023/06/30 00:32:42;;;;;;;;;;;;;;;28.56;41.09;101096.00;5063949;28;19920;-84
2023/06/30 00:35:07;;;;;;;;;;;;;;;28.55;40.95;101091.66;5062950;28;19923;-84
2023/06/30 00:37:33;;;;;;;;;;;;;;;28.55;40.77;101086.13;5062877;28;20265;-84
2023/06/30 00:39:58;;;;;;;;;;;;;;;28.52;41.10;101086.03;5064362;28;19922;-84
2023/06/30 00:42:23;;;;;;;;;;;;;;;28.50;41.01;101089.16;5079243;28;19970;-84
2023/06/30 00:44:49;;;;;;;;;;;;;;;28.51;40.69;101084.44;5059479;28;19962;-84
2023/06/30 00:47:14;;;;;;;;;;;;;;;28.51;40.77;101079.72;5059872;28;19989;-84
2023/06/30 00:49:40;;;;;;;;;;;;;;;28.49;40.83;101079.28;5054262;28;19917;-84
2023/06/30 00:52:06;;;;;;;;;;;;;;;28.48;41.10;101079.66;5053791;28;19916;-84
2023/06/30 00:54:31;;;;;;;;;;;;;;;28.45;41.17;101075.66;5061327;28;19920;-84
2023/06/30 00:57:04;;;;;;;;;;;;;;;28.42;41.02;101073.66;5062040;28;19928;-84
2023/06/30 00:59:30;;;;;;;;;;;;;;;28.40;41.30;101075.97;5061728;28;19917;-84
2023/06/30 01:02:09;;;;;;;;;;;;;;;28.38;41.45;101072.78;5058121;28;19955;-84
2023/06/30 01:04:41;;;;;;;;;;;;;;;28.34;41.57;101063.63;5057797;28;19924;-84
2023/06/30 01:07:25;;;;;;;;;;;;;;;28.34;41.66;101062.81;5059010;28;19916;-84
2023/06/30 01:09:58;;;;;;;;;;;;;;;28.31;41.79;101064.34;5056827;28;19937;-84
2023/06/30 01:12:24;;;;;;;;;;;;;;;28.29;41.67;101061.94;5059665;28;19928;-84
2023/06/30 01:14:50;;;;;;;;;;;;;;;28.29;41.48;101061.94;5058730;28;19930;-84
2023/06/30 01:17:17;;;;;;;;;;;;;;;28.28;41.65;101056.78;5060322;28;20022;-84
2023/06/30 01:19:44;;;;;;;;;;;;;;;28.26;41.44;101061.88;5058617;28;19917;-84
2023/06/30 01:22:24;;;;;;;;;;;;;;;28.25;41.79;101051.97;5059771;28;19923;-84
2023/06/30 01:24:53;;;;;;;;;;;;;;;28.24;41.68;101053.16;5059175;28;20373;-84
2023/06/30 01:27:20;;;;;;;;;;;;;;;28.25;41.76;101051.97;5060548;28;20005;-84
2023/06/30 01:29:45;;;;;;;;;;;;;;;28.23;42.02;101051.56;5060707;28;19975;-84
2023/06/30 01:32:16;;;;;;;;;;;;;;;28.22;41.84;101044.44;5059336;28;19999;-84
2023/06/30 01:34:42;;;;;;;;;;;;;;;28.19;42.21;101051.47;5060782;28;20446;-84
2023/06/30 01:37:07;;;;;;;;;;;;;;;28.18;42.13;101051.81;5057621;28;19921;-84
2023/06/30 01:39:33;;;;;;;;;;;;;;;28.17;42.19;101051.00;5059886;28;20676;-84
2023/06/30 01:41:58;;;;;;;;;;;;;;;28.18;42.25;101054.56;5060352;28;20125;-84
2023/06/30 01:44:23;;;;;;;;;;;;;;;28.18;42.27;101043.53;5059893;28;19920;-84
2023/06/30 01:46:48;;;;;;;;;;;;;;;28.17;42.13;101041.94;5059658;28;20012;-84
2023/06/30 01:49:14;;;;;;;;;;;;;;;28.17;42.06;101041.94;5060726;28;20277;-84
2023/06/30 01:51:40;;;;;;;;;;;;;;;28.16;41.95;101040.34;5062149;28;19920;-84
2023/06/30 01:54:05;;;;;;;;;;;;;;;28.14;42.21;101037.97;5058447;28;19917;-84
2023/06/30 01:56:30;;;;;;;;;;;;;;;28.15;42.03;101044.28;5061744;28;20392;-84
2023/06/30 01:58:55;;;;;;;;;;;;;;;28.14;42.04;101050.94;5063602;28;20406;-84
2023/06/30 02:01:21;;;;;;;;;;;;;;;28.14;41.77;101053.69;5061776;28;19951;-84
2023/06/30 02:03:48;;;;;;;;;;;;;;;28.12;42.04;101042.25;5057052;28;19927;-84
2023/06/30 02:06:13;;;;;;;;;;;;;;;28.12;41.80;101042.25;5057473;28;20395;-84
2023/06/30 02:08:39;;;;;;;;;;;;;;;28.12;42.15;101045.00;5061329;28;19920;-84
2023/06/30 02:11:04;;;;;;;;;;;;;;;28.11;42.07;101046.94;5058512;28;20531;-84
2023/06/30 02:13:29;;;;;;;;;;;;;;;28.09;41.87;101046.53;5061303;28;20060;-84
2023/06/30 02:15:54;;;;;;;;;;;;;;;28.06;42.05;101043.69;5059019;28;19929;-84
2023/06/30 02:18:22;;;;;;;;;;;;;;;28.03;41.68;101045.22;5060507;28;19921;-84
2023/06/30 02:20:47;;;;;;;;;;;;;;;28.02;41.94;101053.84;5061412;28;19955;-84
2023/06/30 02:23:12;;;;;;;;;;;;;;;28.02;41.77;101046.38;5059491;28;20007;-84
2023/06/30 02:25:38;;;;;;;;;;;;;;;28.00;42.01;101054.16;5059117;28;19916;-84
2023/06/30 02:28:03;;;;;;;;;;;;;;;27.98;41.96;101050.97;5058792;28;20384;-83
2023/06/30 02:30:28;;;;;;;;;;;;;;;27.96;42.07;101053.28;5061397;28;19920;-84
2023/06/30 02:32:54;;;;;;;;;;;;;;;27.93;42.21;101043.78;5058065;28;20007;-84
2023/06/30 02:35:19;;;;;;;;;;;;;;;27.92;42.00;101046.91;5058014;28;19924;-84
2023/06/30 02:37:44;;;;;;;;;;;;;;;27.91;41.88;101045.31;5060521;28;19982;-84
2023/06/30 02:40:10;;;;;;;;;;;;;;;27.91;41.77;101043.34;5058283;28;19917;-84
2023/06/30 02:42:35;;;;;;;;;;;;;;;27.96;41.36;101042.28;5059047;28;19962;-84
2023/06/30 02:45:01;;;;;;;;;;;;;;;28.01;41.31;101042.03;5058069;28;19917;-84
2023/06/30 02:47:26;;;;;;;;;;;;;;;28.03;41.29;101041.66;5059149;28;19925;-84
2023/06/30 02:49:51;;;;;;;;;;;;;;;28.03;41.45;101047.97;5058137;28;19920;-84
2023/06/30 02:52:17;;;;;;;;;;;;;;;28.05;41.43;101044.84;5057920;28;19920;-83
2023/06/30 02:54:42;;;;;;;;;;;;;;;28.06;41.15;101046.44;5058408;28;19995;-83
2023/06/30 02:57:07;;;;;;;;;;;;;;;28.00;41.20;101043.94;5063102;28;19930;-84
2023/06/30 02:59:32;;;;;;;;;;;;;;;27.98;41.47;101049.00;5062601;28;21018;-84
2023/06/30 03:01:59;;;;;;;;;;;;;;;27.96;41.47;101054.09;5062984;28;19924;-84
2023/06/30 03:04:24;;;;;;;;;;;;;;;27.90;41.45;101054.72;5060154;28;20303;-84
2023/06/30 03:06:50;;;;;;;;;;;;;;;27.84;41.88;101056.16;5063656;28;20014;-84
2023/06/30 03:09:15;;;;;;;;;;;;;;;27.81;41.78;101054.91;5061737;28;19924;-83
2023/06/30 03:11:40;;;;;;;;;;;;;;;27.79;42.26;101050.91;5060576;28;19917;-85
2023/06/30 03:14:06;;;;;;;;;;;;;;;27.73;42.37;101041.34;5061379;28;20308;-84
2023/06/30 03:16:32;;;;;;;;;;;;;;;27.68;42.59;101042.44;5062516;28;19920;-84
2023/06/30 03:18:58;;;;;;;;;;;;;;;27.62;42.58;101041.84;5061561;28;20340;-84
2023/06/30 03:21:24;;;;;;;;;;;;;;;27.62;42.45;101049.31;5063089;28;19916;-84
2023/06/30 03:23:49;;;;;;;;;;;;;;;27.59;42.42;101047.28;5058497;28;19966;-83
2023/06/30 03:26:14;;;;;;;;;;;;;;;27.52;42.51;101047.09;5061897;28;20375;-84
2023/06/30 03:28:40;;;;;;;;;;;;;;;27.50;42.85;101052.16;5055682;28;19921;-84
2023/06/30 03:31:05;;;;;;;;;;;;;;;27.48;43.05;101048.97;5054050;28;20070;-83
2023/06/30 03:33:30;;;;;;;;;;;;;;;27.49;42.95;101050.56;5054581;28;19916;-84
2023/06/30 03:35:56;;;;;;;;;;;;;;;27.50;43.10;101057.66;5053546;28;19921;-84
2023/06/30 03:38:21;;;;;;;;;;;;;;;27.52;42.93;101052.59;5057553;28;21335;-83
2023/06/30 03:40:46;;;;;;;;;;;;;;;27.52;43.01;101058.13;5066069;28;20396;-83
2023/06/30 03:43:12;;;;;;;;;;;;;;;27.50;42.94;101058.47;5057901;28;20300;-84
2023/06/30 03:45:40;;;;;;;;;;;;;;;27.49;43.38;101053.31;5058854;28;19916;-83
2023/06/30 03:48:05;;;;;;;;;;;;;;;27.44;43.29;101054.38;5060728;28;20391;-83
2023/06/30 03:50:30;;;;;;;;;;;;;;;27.40;43.53;101048.78;5058114;28;19916;-84
2023/06/30 03:52:56;;;;;;;;;;;;;;;27.39;43.54;101054.63;5059883;28;19920;-83
2023/06/30 03:55:21;;;;;;;;;;;;;;;27.37;43.66;101057.75;5054031;28;19924;-83
2023/06/30 03:57:46;;;;;;;;;;;;;;;27.36;43.54;101056.16;5058727;28;20226;-83
2023/06/30 04:00:12;;;;;;;;;;;;;;;27.35;43.57;101060.06;5056976;28;19916;-83
2023/06/30 04:02:38;;;;;;;;;;;;;;;27.38;43.73;101055.78;5057102;28;20167;-84
2023/06/30 04:05:03;;;;;;;;;;;;;;;27.40;43.74;101065.28;5056596;28;19916;-83
2023/06/30 04:07:29;;;;;;;;;;;;;;;27.40;43.69;101057.03;5059138;28;19925;-83
2023/06/30 04:09:54;;;;;;;;;;;;;;;27.36;44.08;101053.41;5057860;28;20003;-83
2023/06/30 04:12:19;;;;;;;;;;;;;;;27.35;44.11;101051.81;5059904;28;20284;-83
2023/06/30 04:14:45;;;;;;;;;;;;;;;27.35;44.12;101057.31;5055579;28;20526;-83
2023/06/30 04:17:10;;;;;;;;;;;;;;;27.37;44.11;101054.19;5056935;28;19924;-83
2023/06/30 04:19:35;;;;;;;;;;;;;;;27.36;44.15;101047.91;5059522;28;19923;-84
2023/06/30 04:22:00;;;;;;;;;;;;;;;27.37;44.17;101060.50;5055340;28;19968;-84
2023/06/30 04:24:26;;;;;;;;;;;;;;;27.39;44.05;101060.16;5059440;28;20400;-84
2023/06/30 04:26:51;;;;;;;;;;;;;;;27.40;43.99;101059.00;5057462;28;20479;-84
2023/06/30 04:29:16;;;;;;;;;;;;;;;27.41;44.20;101055.09;5057859;28;20366;-83
2023/06/30 04:31:42;;;;;;;;;;;;;;;27.42;44.34;101056.69;5056657;28;20471;-83
2023/06/30 04:34:08;;;;;;;;;;;;;;;27.41;44.24;101055.09;5058134;28;19925;-83
2023/06/30 04:36:33;;;;;;;;;;;;;;;27.43;44.63;101052.78;5059465;28;20338;-84
2023/06/30 04:38:58;;;;;;;;;;;;;;;27.44;44.54;101048.88;5055000;28;20000;-84
2023/06/30 04:41:23;;;;;;;;;;;;;;;27.48;44.53;101040.72;5056496;28;19923;-83
2023/06/30 04:43:49;;;;;;;;;;;;;;;27.50;44.55;101041.97;5055580;28;19917;-83
2023/06/30 04:46:15;;;;;;;;;;;;;;;27.54;44.42;101044.78;5055521;28;19963;-84
2023/06/30 04:48:40;;;;;;;;;;;;;;;27.58;44.71;101040.16;5056190;28;20043;-84
2023/06/30 04:51:06;;;;;;;;;;;;;;;27.59;44.61;101039.00;5058437;28;20035;-84
2023/06/30 04:53:31;;;;;;;;;;;;;;;27.58;45.10;101031.91;5064901;28;20375;-83
2023/06/30 04:55:57;;;;;;;;;;;;;;;27.61;44.93;101031.19;5060422;28;19921;-84
2023/06/30 04:58:22;;;;;;;;;;;;;;;27.63;44.83;101026.16;5056854;28;19927;-84
2023/06/30 05:00:47;;;;;;;;;;;;;;;27.66;44.93;101031.78;5057164;28;20301;-83
2023/06/30 05:03:13;;;;;;;;;;;;;;;27.72;44.74;101029.53;5054694;28;19920;-84
2023/06/30 05:05:38;;;;;;;;;;;;;;;27.76;44.79;101030.41;5054334;28;19925;-83
2023/06/30 05:08:04;;;;;;;;;;;;;;;27.80;44.52;101023.03;5057981;28;19924;-84
2023/06/30 05:10:29;;;;;;;;;;;;;;;27.83;44.67;101035.28;5060061;28;20351;-83
2023/06/30 05:12:54;;;;;;;;;;;;;;;27.86;44.54;101031.84;5057710;28;20266;-84
2023/06/30 05:15:19;;;;;;;;;;;;;;;27.90;44.74;101021.69;5061541;28;20009;-84
2023/06/30 05:17:45;;;;;;;;;;;;;;;27.96;44.83;101020.25;5061333;28;19927;-84
2023/06/30 05:20:10;;;;;;;;;;;;;;;28.01;44.90;101020.00;5054975;28;19920;-83
2023/06/30 05:22:36;;;;;;;;;;;;;;;28.04;44.63;101016.50;5056297;28;20423;-84
2023/06/30 05:25:01;;;;;;;;;;;;;;;28.07;44.31;101020.50;5052159;28;19921;-83
2023/06/30 05:27:27;;;;;;;;;;;;;;;28.05;44.84;101009.03;5055186;28;20020;-83
2023/06/30 05:29:52;;;;;;;;;;;;;;;28.05;44.56;101009.03;5061379;28;19964;-83
2023/06/30 05:32:17;;;;;;;;;;;;;;;28.06;44.74;101008.69;5051612;28;19943;-83
2023/06/30 05:34:43;;;;;;;;;;;;;;;28.10;44.53;101006.00;5054195;28;19928;-83
2023/06/30 05:37:08;;;;;;;;;;;;;;;28.14;44.63;101017.88;5054934;28;19936;-84
2023/06/30 05:39:33;;;;;;;;;;;;;;;28.16;44.26;101008.09;5055213;28;20970;-84
2023/06/30 05:41:59;;;;;;;;;;;;;;;28.23;44.38;101012.97;5052269;28;20446;-83
2023/06/30 05:44:24;;;;;;;;;;;;;;;28.27;44.36;101009.16;5051522;28;19947;-84
2023/06/30 05:46:49;;;;;;;;;;;;;;;28.33;44.44;101009.66;5051057;28;20007;-84
2023/06/30 05:49:15;;;;;;;;;;;;;;;28.35;44.02;101012.84;5061475;28;19920;-83
2023/06/30 05:51:40;;;;;;;;;;;;;;;28.35;44.22;101015.59;5053753;28;20055;-84
2023/06/30 05:54:05;;;;;;;;;;;;;;;28.35;44.36;101015.59;5054122;28;20549;-84
2023/06/30 05:56:31;;;;;;;;;;;;;;;28.33;44.15;101008.88;5056295;28;19932;-84
2023/06/30 05:58:58;;;;;;;;;;;;;;;28.30;43.90;101002.13;5051976;28;19928;-84
2023/06/30 06:01:24;;;;;;;;;;;;;;;28.31;44.32;101009.22;5053269;28;20300;-84
2023/06/30 06:03:49;;;;;;;;;;;;;;;28.38;44.10;101014.91;5051816;28;20209;-84
2023/06/30 06:06:15;;;;;;;;;;;;;;;28.47;44.17;101015.47;5052902;28;19928;-84
2023/06/30 06:08:46;;;;;;;;;;;;;;;28.54;43.86;101007.34;5056239;28;20350;-84
2023/06/30 06:11:11;;;;;;;;;;;;;;;28.61;43.76;101003.16;5051610;28;19927;-84
2023/06/30 06:13:37;;;;;;;;;;;;;;;28.66;43.76;101008.34;5061485;28;19920;-84
2023/06/30 06:16:03;;;;;;;;;;;;;;;28.71;43.83;101008.06;5049994;28;19925;-83
2023/06/30 06:18:28;;;;;;;;;;;;;;;28.78;43.40;101005.44;5056425;28;20497;-84
2023/06/30 06:20:54;;;;;;;;;;;;;;;28.91;43.58;101008.88;5052030;28;19942;-84
2023/06/30 06:23:20;;;;;;;;;;;;;;;29.06;43.16;101017.00;5053085;28;19917;-87
2023/06/30 06:25:45;;;;;;;;;;;;;;;29.22;43.04;101022.41;5052733;28;19932;-83
2023/06/30 06:28:10;;;;;;;;;;;;;;;29.30;43.02;101020.59;5062594;28;19924;-83
2023/06/30 06:30:36;;;;;;;;;;;;;;;29.32;43.38;101021.03;5060289;28;19920;-82
2023/06/30 06:33:01;;;;;;;;;;;;;;;29.36;42.92;101021.88;5050519;28;19926;-83
2023/06/30 06:35:26;;;;;;;;;;;;;;;29.43;43.20;101013.69;5050705;28;19966;-83
2023/06/30 06:37:51;;;;;;;;;;;;;;;29.55;42.87;101016.28;5052495;28;20373;-83
2023/06/30 06:40:17;;;;;;;;;;;;;;;29.57;42.78;101011.19;5051952;28;19925;-83
2023/06/30 06:42:42;;;;;;;;;;;;;;;29.60;42.80;101013.22;5051260;28;19974;-82
2023/06/30 06:45:08;;;;;;;;;;;;;;;29.67;42.59;101013.34;5050211;28;19921;-82
2023/06/30 06:47:52;;;;;;;;;;;;;;;29.66;42.17;101011.75;5049087;28;19924;-81
2023/06/30 06:50:17;;;;;;;;;;;;;;;29.65;42.53;101021.19;5053052;28;19924;-82
2023/06/30 06:52:42;;;;;;;;;;;;;;;29.73;42.50;101017.38;5053001;28;19924;-82
2023/06/30 06:55:08;;;;;;;;;;;;;;;29.86;42.27;101028.22;5052277;28;20023;-81
2023/06/30 06:57:33;;;;;;;;;;;;;;;29.96;42.04;101030.31;5060824;28;19943;-82
2023/06/30 06:59:59;;;;;;;;;;;;;;;30.06;42.23;101029.72;5052848;28;19999;-82
2023/06/30 07:02:27;;;;;;;;;;;;;;;30.14;42.43;101025.84;5050329;28;19920;-82
2023/06/30 07:04:52;;;;;;;;;;;;;;;30.26;41.75;101022.88;5053571;28;19924;-82
2023/06/30 07:07:18;;;;;;;;;;;;;;;30.38;41.62;101030.94;5053641;28;19921;-82
2023/06/30 07:09:43;;;;;;;;;;;;;;;30.48;41.48;101026.69;5050848;28;20022;-82
2023/06/30 07:12:08;;;;;;;;;;;;;;;30.62;41.00;101026.09;5052608;28;19917;-82
2023/06/30 07:14:35;;;;;;;;;;;;;;;30.75;41.35;101032.19;5057900;28;19916;-83
2023/06/30 07:17:00;;;;;;;;;;;;;;;30.86;41.21;101022.00;5059689;28;19928;-82
2023/06/30 07:19:25;;;;;;;;;;;;;;;30.90;40.84;101018.13;5060043;28;19920;-83
2023/06/30 07:21:52;;;;;;;;;;;;;;;30.93;40.63;101017.34;5057145;28;19921;-87
2023/06/30 07:24:17;;;;;;;;;;;;;;;31.03;40.60;101013.09;5060417;28;19938;-85
2023/06/30 07:26:43;;;;;;;;;;;;;;;31.04;40.45;101008.34;5054783;28;19916;-85
2023/06/30 07:29:08;;;;;;;;;;;;;;;31.16;40.42;101019.16;5055771;28;20364;-83
2023/06/30 07:31:33;;;;;;;;;;;;;;;31.21;40.40;101022.38;5057087;28;19920;-83
2023/06/30 07:33:59;;;;;;;;;;;;;;;31.24;40.13;101024.41;5059064;28;19917;-86
2023/06/30 07:36:24;;;;;;;;;;;;;;;31.24;39.86;101026.38;5058030;28;19956;-85
2023/06/30 07:38:49;;;;;;;;;;;;;;;31.30;39.90;101024.84;5052980;28;19923;-86
2023/06/30 07:41:14;;;;;;;;;;;;;;;31.34;39.76;101020.13;5060061;28;19944;-85
2023/06/30 07:43:40;;;;;;;;;;;;;;;31.33;39.33;101012.22;5055208;28;20259;-82
2023/06/30 07:46:05;;;;;;;;;;;;;;;31.24;39.33;101013.34;5054066;28;20369;-83
2023/06/30 07:48:30;;;;;;;;;;;;;;;31.25;40.17;101011.38;5058466;28;20207;-83
2023/06/30 07:50:56;;;;;;;;;;;;;;;31.34;39.93;101014.59;5053556;28;20428;-86
2023/06/30 07:53:21;;;;;;;;;;;;;;;31.41;39.39;101014.63;5056601;28;19928;-82
2023/06/30 07:55:46;;;;;;;;;;;;;;;31.46;39.63;101021.81;5054065;28;19991;-82
2023/06/30 07:58:11;;;;;;;;;;;;;;;31.44;39.46;101029.72;5058090;28;20413;-85
2023/06/30 08:00:37;;;;;;;;;;;;;;;31.39;39.76;101030.03;5060287;28;19924;-84
2023/06/30 08:03:02;;;;;;;;;;;;;;;31.35;39.50;101034.75;5058847;28;20172;-82
2023/06/30 08:05:27;;;;;;;;;;;;;;;31.34;39.82;101030.41;5055763;28;20298;-87
2023/06/30 08:07:53;;;;;;;;;;;;;;;31.32;39.64;101028.03;5053842;28;20197;-86
2023/06/30 08:10:18;;;;;;;;;;;;;;;31.29;39.81;101028.00;5054246;28;19924;-87
2023/06/30 08:12:43;;;;;;;;;;;;;;;31.24;39.72;101027.19;5055773;28;20424;-86
2023/06/30 08:15:09;;;;;;;;;;;;;;;31.22;39.62;101012.09;5060151;28;19947;-85
2023/06/30 08:17:34;;;;;;;;;;;;;;;31.20;39.11;101015.25;5056406;28;19928;-86
2023/06/30 08:19:59;;;;;;;;;;;;;;;31.25;39.17;100998.31;5056188;28;19928;-86
2023/06/30 08:22:25;;;;;;;;;;;;;;;31.48;39.45;101000.88;5058540;28;19917;-85
2023/06/30 08:24:50;;;;;;;;;;;;;;;31.75;38.95;101017.28;5053850;28;19927;-86
2023/06/30 08:27:16;;;;;;;;;;;;;;;31.84;38.36;101026.84;5055248;28;20083;-86
2023/06/30 08:29:42;;;;;;;;;;;;;;;31.86;38.28;101018.16;5053177;28;19951;-86
2023/06/30 08:32:07;;;;;;;;;;;;;;;31.80;38.41;101017.75;5053001;28;19924;-85
2023/06/30 08:34:32;;;;;;;;;;;;;;;31.73;38.29;101014.09;5051388;28;19923;-85
2023/06/30 08:36:58;;;;;;;;;;;;;;;31.72;38.17;101012.50;5057608;28;19921;-86
2023/06/30 08:39:26;;;;;;;;;;;;;;;31.65;37.68;101020.75;5056503;28;19916;-84
2023/06/30 08:41:52;;;;;;;;;;;;;;;31.53;38.58;101006.03;5056268;28;19921;-86
2023/06/30 08:44:21;;;;;;;;;;;;;;;31.49;38.39;100999.69;5054985;28;20023;-85
2023/06/30 08:46:47;;;;;;;;;;;;;;;31.53;38.47;101011.56;5054495;28;20392;-85
2023/06/30 08:49:13;;;;;;;;;;;;;;;31.60;38.65;101010.84;5058586;28;19970;-86
2023/06/30 08:51:39;;;;;;;;;;;;;;;31.66;37.96;101020.38;5056911;28;19986;-86
2023/06/30 08:54:05;;;;;;;;;;;;;;;31.69;38.24;101021.56;5058164;28;19920;-85
2023/06/30 08:56:32;;;;;;;;;;;;;;;31.67;37.99;101010.09;5058941;28;19921;-86
2023/06/30 08:58:58;;;;;;;;;;;;;;;31.71;37.88;101016.44;5058068;28;19925;-86
2023/06/30 09:01:23;;;;;;;;;;;;;;;31.76;37.89;101008.59;5059182;28;20212;-86
2023/06/30 09:03:48;;;;;;;;;;;;;;;31.83;37.64;101008.66;5060651;28;20021;-86
2023/06/30 09:06:14;;;;;;;;;;;;;;;31.91;37.64;101001.16;5063508;28;20025;-85
2023/06/30 09:08:39;;;;;;;;;;;;;;;31.88;37.13;101003.91;5061336;28;19931;-85
2023/06/30 09:11:07;;;;;;;;;;;;;;;31.80;37.35;100994.78;5064394;28;19920;-85
2023/06/30 09:13:34;;;;;;;;;;;;;;;31.67;37.47;100997.03;5062487;28;20304;-86
2023/06/30 09:15:59;;;;;;;;;;;;;;;31.58;37.58;100996.56;5062200;28;19925;-85
2023/06/30 09:18:25;;;;;;;;;;;;;;;31.43;37.63;100987.38;5057833;28;20342;-85
2023/06/30 09:20:51;;;;;;;;;;;;;;;31.34;38.25;100994.41;5063015;28;19933;-85
2023/06/30 09:23:16;;;;;;;;;;;;;;;31.31;38.03;101004.28;5062170;28;19928;-85
2023/06/30 09:25:42;;;;;;;;;;;;;;;31.32;38.19;101005.88;5058244;28;19963;-85
2023/06/30 09:28:08;;;;;;;;;;;;;;;31.28;38.46;101016.13;5063415;28;19930;-86
2023/06/30 09:30:35;;;;;;;;;;;;;;;31.23;38.75;101014.50;5062538;28;19985;-84
2023/06/30 09:33:03;;;;;;;;;;;;;;;31.21;38.80;101011.31;5061679;28;19928;-84
2023/06/30 09:35:42;;;;;;;;;;;;;;;31.19;38.81;101016.44;5056619;28;19931;-85
2023/06/30 09:38:11;;;;;;;;;;;;;;;31.16;38.74;101027.44;5060141;28;19921;-86
2023/06/30 09:40:36;;;;;;;;;;;;;;;31.10;38.63;101031.75;5056646;28;19920;-84
2023/06/30 09:43:02;;;;;;;;;;;;;;;31.00;38.41;101027.69;5057490;28;19920;-86
2023/06/30 09:45:27;;;;;;;;;;;;;;;30.91;38.71;101032.75;5063634;28;19920;-86
2023/06/30 09:47:52;;;;;;;;;;;;;;;30.75;38.91;101032.97;5057833;28;19924;-86
2023/06/30 09:50:29;;;;;;;;;;;;;;;30.65;39.21;101039.97;5057532;28;19917;-86
2023/06/30 09:52:55;;;;;;;;;;;;;;;30.53;39.88;101042.97;5056992;28;19960;-87
2023/06/30 09:55:20;;;;;;;;;;;;;;;30.43;40.32;101035.31;5062695;28;19955;-88
2023/06/30 09:57:46;;;;;;;;;;;;;;;30.36;40.35;101026.97;5062033;28;19975;-88
2023/06/30 10:00:11;;;;;;;;;;;;;;;30.30;40.55;101034.75;5058142;28;20052;-90
2023/06/30 10:02:37;;;;;;;;;;;;;;;30.26;40.91;101033.94;5059117;28;20007;-89
2023/06/30 10:05:03;;;;;;;;;;;;;;;30.25;40.87;101032.34;5052974;28;19916;-89
2023/06/30 10:07:28;;;;;;;;;;;;;;;30.24;41.45;101021.66;5056832;28;19967;-89
2023/06/30 10:09:54;;;;;;;;;;;;;;;30.25;41.54;101020.47;5058766;28;19967;-90
2023/06/30 10:12:19;;;;;;;;;;;;;;;30.33;41.57;101014.66;5057317;28;19917;-90
2023/06/30 10:14:47;;;;;;;;;;;;;;;30.47;41.45;101016.81;5064463;28;20304;-90
2023/06/30 10:17:13;;;;;;;;;;;;;;;30.58;41.53;101005.88;5063071;28;20391;-91
2023/06/30 10:19:39;;;;;;;;;;;;;;;30.67;41.14;101012.72;5059735;28;19924;-91
2023/06/30 10:22:05;;;;;;;;;;;;;;;30.79;41.38;100999.81;5056259;28;19934;-90
2023/06/30 10:24:37;;;;;;;;;;;;;;;30.91;41.04;101005.09;5054827;28;20354;-92
2023/06/30 10:27:04;;;;;;;;;;;;;;;31.02;41.29;101007.94;5057589;28;19920;-90
2023/06/30 10:29:30;;;;;;;;;;;;;;;31.11;41.31;101011.19;5059341;28;19928;-90
2023/06/30 10:31:55;;;;;;;;;;;;;;;31.21;41.34;101010.50;5055681;28;20438;-88
2023/06/30 10:34:21;;;;;;;;;;;;;;;31.27;40.54;101003.47;5057686;28;19973;-89
2023/06/30 10:36:46;;;;;;;;;;;;;;;31.30;40.58;100997.16;5055764;28;19921;-90
2023/06/30 10:39:15;;;;;;;;;;;;;;;31.29;40.65;101009.41;5058118;28;20349;-89
2023/06/30 10:41:50;;;;;;;;;;;;;;;31.23;40.44;101010.91;5057826;28;19925;-90
2023/06/30 10:44:18;;;;;;;;;;;;;;;31.21;40.57;101010.50;5057435;28;20354;-88
2023/06/30 10:46:55;;;;;;;;;;;;;;;31.24;40.49;101015.31;5061559;28;20399;-89
2023/06/30 10:49:20;;;;;;;;;;;;;;;31.28;40.66;101005.06;5057434;28;20019;-89
2023/06/30 10:51:50;;;;;;;;;;;;;;;31.36;40.34;100995.63;5058962;28;20007;-90
2023/06/30 10:54:24;;;;;;;;;;;;;;;31.46;40.21;100991.34;5055532;28;19998;-88
2023/06/30 10:56:50;;;;;;;;;;;;;;;31.56;40.22;100993.38;5060804;28;19929;-88
2023/06/30 10:59:25;;;;;;;;;;;;;;;31.59;40.27;100989.84;5053732;28;20137;-87
2023/06/30 11:02:10;;;;;;;;;;;;;;;31.62;40.31;100993.84;5060433;28;20170;-88
2023/06/30 11:04:36;;;;;;;;;;;;;;;31.65;39.92;101004.94;5056774;28;20002;-88
2023/06/30 11:07:02;;;;;;;;;;;;;;;31.64;39.81;100997.03;5060980;28;20023;-88
2023/06/30 11:09:48;;;;;;;;;;;;;;;31.60;40.10;100998.94;5058308;28;19924;-88
2023/06/30 11:12:19;;;;;;;;;;;;;;;31.51;40.11;100996.53;5061422;28;19927;-88
2023/06/30 11:14:58;;;;;;;;;;;;;;;31.42;40.56;100991.34;5056824;28;20250;-88
2023/06/30 11:17:24;;;;;;;;;;;;;;;31.34;40.44;100992.44;5059425;28;20298;-87
2023/06/30 11:20:01;;;;;;;;;;;;;;;31.31;40.28;100992.41;5061526;28;19966;-89
2023/06/30 11:22:30;;;;;;;;;;;;;;;31.26;40.12;100990.81;5055610;28;19985;-87
2023/06/30 11:24:56;;;;;;;;;;;;;;;31.20;40.46;100993.13;5058175;28;19924;-88
2023/06/30 11:27:21;;;;;;;;;;;;;;;31.16;40.25;101002.53;5051590;28;19920;-86
2023/06/30 11:29:50;;;;;;;;;;;;;;;31.05;40.02;101001.63;5053727;28;20015;-88
2023/06/30 11:32:26;;;;;;;;;;;;;;;30.91;40.33;101005.09;5053728;28;19925;-86
2023/06/30 11:34:51;;;;;;;;;;;;;;;30.71;40.50;100995.41;5050862;28;20351;-86
2023/06/30 11:37:17;;;;;;;;;;;;;;;30.54;40.71;101005.84;5054227;28;20157;-86
2023/06/30 11:39:49;;;;;;;;;;;;;;;30.41;41.03;101000.94;5058131;28;19927;-88
2023/06/30 11:42:14;;;;;;;;;;;;;;;30.23;41.12;101015.34;5059870;28;19917;-88
2023/06/30 11:44:39;;;;;;;;;;;;;;;30.11;40.90;101012.00;5054115;28;20334;-87
2023/06/30 11:47:05;;;;;;;;;;;;;;;29.97;41.11;101021.66;5057139;28;19982;-87
2023/06/30 11:49:34;;;;;;;;;;;;;;;29.85;41.16;101023.84;5056809;28;19921;-86
2023/06/30 11:52:00;;;;;;;;;;;;;;;29.68;41.29;101023.22;5057410;28;19928;-86
2023/06/30 11:54:30;;;;;;;;;;;;;;;29.61;41.49;101034.13;5050022;28;19921;-86
2023/06/30 11:56:57;;;;;;;;;;;;;;;29.54;41.44;101031.25;5056411;28;19925;-86
2023/06/30 11:59:22;;;;;;;;;;;;;;;29.45;41.80;101036.22;5056425;28;19983;-86
2023/06/30 12:01:47;;;;;;;;;;;;;;;29.44;42.35;101023.56;5054839;28;19925;-86
2023/06/30 12:04:12;;;;;;;;;;;;;;;29.45;42.16;101019.66;5062182;28;20240;-86
2023/06/30 12:06:38;;;;;;;;;;;;;;;29.51;42.12;101026.50;5060993;28;19920;-87
2023/06/30 12:09:03;;;;;;;;;;;;;;;29.58;42.34;101031.31;5061911;28;19927;-86
2023/06/30 12:11:32;;;;;;;;;;;;;;;29.63;42.07;101037.34;5062354;28;20019;-87
2023/06/30 12:13:57;;;;;;;;;;;;;;;29.64;41.68;101025.13;5059620;28;19921;-88
2023/06/30 12:16:25;;;;;;;;;;;;;;;29.68;41.63;101012.16;5061253;28;19928;-88
2023/06/30 12:18:50;;;;;;;;;;;;;;;29.75;41.79;101019.75;5058124;28;19927;-90
2023/06/30 12:21:16;;;;;;;;;;;;;;;29.80;41.95;101022.19;5062188;28;19920;-88
2023/06/30 12:23:43;;;;;;;;;;;;;;;29.81;42.03;101023.00;5061053;28;19920;-89
2023/06/30 12:26:08;;;;;;;;;;;;;;;29.84;41.84;101017.53;5063441;28;20159;-90
2023/06/30 12:28:34;;;;;;;;;;;;;;;29.82;42.17;101013.56;5057334;28;19924;-88
2023/06/30 12:30:59;;;;;;;;;;;;;;;29.77;42.06;101023.72;5060191;28;20208;-89